sensor_id;sensor_type;location;lat;lon;timestamp;pressure;altitude;pressure_sealevel;temperature;humidity
50282;BME280;36176;51.506;10.272;2023-04-25T00:00:54;98654.84;;;4.88;81.74
50282;BME280;36176;51.506;10.272;2023-04-25T00:03:20;98654.03;;;4.86;81.52
50282;BME280;36176;51.506;10.272;2023-04-25T00:05:48;98658.53;;;4.83;82.16
50282;BME280;36176;51.506;10.272;2023-04-25T00:08:15;98656.06;;;4.78;81.96
50282;BME280;36176;51.506;10.272;2023-04-25T00:10:42;98651.81;;;4.76;81.62
50282;BME280;36176;51.506;10.272;2023-04-25T00:13:09;98660.59;;;4.75;81.42
50282;BME280;36176;51.506;10.272;2023-04-25T00:15:38;98662.53;;;4.69;81.81
50282;BME280;36176;51.506;10.272;2023-04-25T00:18:05;98659.44;;;4.58;81.72
50282;BME280;36176;51.506;10.272;2023-04-25T00:20:33;98660.75;;;4.45;82.34
50282;BME280;36176;51.506;10.272;2023-04-25T00:23:00;98665.44;;;4.37;82.56
50282;BME280;36176;51.506;10.272;2023-04-25T00:25:27;98661.31;;;4.30;83.19
50282;BME280;36176;51.506;10.272;2023-04-25T00:27:54;98654.44;;;4.25;83.72
50282;BME280;36176;51.506;10.272;2023-04-25T00:30:21;98649.13;;;4.29;83.69
50282;BME280;36176;51.506;10.272;2023-04-25T00:32:48;98649.81;;;4.34;84.31
50282;BME280;36176;51.506;10.272;2023-04-25T00:35:16;98647.28;;;4.31;84.24
50282;BME280;36176;51.506;10.272;2023-04-25T00:37:43;98645.75;;;4.25;84.78
50282;BME280;36176;51.506;10.272;2023-04-25T00:40:10;98646.81;;;4.19;84.95
50282;BME280;36176;51.506;10.272;2023-04-25T00:42:38;98648.75;;;4.14;85.63
50282;BME280;36176;51.506;10.272;2023-04-25T00:45:06;98641.72;;;4.15;85.81
50282;BME280;36176;51.506;10.272;2023-04-25T00:47:35;98641.63;;;4.18;85.83
50282;BME280;36176;51.506;10.272;2023-04-25T00:50:02;98645.00;;;4.21;86.08
50282;BME280;36176;51.506;10.272;2023-04-25T00:52:29;98640.66;;;4.20;86.35
50282;BME280;36176;51.506;10.272;2023-04-25T00:54:56;98645.91;;;4.20;85.92
50282;BME280;36176;51.506;10.272;2023-04-25T00:57:23;98649.31;;;4.22;85.95
50282;BME280;36176;51.506;10.272;2023-04-25T00:59:52;98643.22;;;4.22;86.33
50282;BME280;36176;51.506;10.272;2023-04-25T01:02:20;98645.69;;;4.26;86.80
50282;BME280;36176;51.506;10.272;2023-04-25T01:04:48;98646.28;;;4.35;86.41
50282;BME280;36176;51.506;10.272;2023-04-25T01:07:16;98654.78;;;4.41;85.50
50282;BME280;36176;51.506;10.272;2023-04-25T01:09:43;98652.91;;;4.45;85.41
50282;BME280;36176;51.506;10.272;2023-04-25T01:12:10;98647.66;;;4.45;85.29
50282;BME280;36176;51.506;10.272;2023-04-25T01:14:37;98656.50;;;4.42;84.89
50282;BME280;36176;51.506;10.272;2023-04-25T01:17:04;98651.25;;;4.42;84.72
50282;BME280;36176;51.506;10.272;2023-04-25T01:19:32;98645.25;;;4.39;84.85
50282;BME280;36176;51.506;10.272;2023-04-25T01:21:59;98649.13;;;4.29;86.09
50282;BME280;36176;51.506;10.272;2023-04-25T01:24:26;98646.44;;;4.30;85.41
50282;BME280;36176;51.506;10.272;2023-04-25T01:26:54;98649.06;;;4.30;85.29
50282;BME280;36176;51.506;10.272;2023-04-25T01:29:23;98654.41;;;4.27;85.77
50282;BME280;36176;51.506;10.272;2023-04-25T01:31:51;98651.78;;;4.27;85.71
50282;BME280;36176;51.506;10.272;2023-04-25T01:34:19;98655.41;;;4.23;85.43
50282;BME280;36176;51.506;10.272;2023-04-25T01:36:49;98648.53;;;4.20;85.63
50282;BME280;36176;51.506;10.272;2023-04-25T01:39:17;98645.16;;;4.17;85.87
50282;BME280;36176;51.506;10.272;2023-04-25T01:41:46;98648.66;;;4.16;86.14
50282;BME280;36176;51.506;10.272;2023-04-25T01:44:13;98641.81;;;4.12;85.98
50282;BME280;36176;51.506;10.272;2023-04-25T01:46:40;98651.69;;;4.05;86.64
50282;BME280;36176;51.506;10.272;2023-04-25T01:49:07;98644.63;;;4.07;87.22
50282;BME280;36176;51.506;10.272;2023-04-25T01:51:35;98652.22;;;4.15;87.47
50282;BME280;36176;51.506;10.272;2023-04-25T01:54:02;98662.25;;;4.29;87.72
50282;BME280;36176;51.506;10.272;2023-04-25T01:56:32;98666.69;;;4.50;87.81
50282;BME280;36176;51.506;10.272;2023-04-25T01:59:00;98659.91;;;4.69;86.86
50282;BME280;36176;51.506;10.272;2023-04-25T02:01:26;98652.28;;;4.87;86.40
50282;BME280;36176;51.506;10.272;2023-04-25T02:03:53;98655.56;;;4.92;85.74
50282;BME280;36176;51.506;10.272;2023-04-25T02:06:21;98660.03;;;4.90;85.20
50282;BME280;36176;51.506;10.272;2023-04-25T02:08:48;98661.84;;;4.88;85.26
50282;BME280;36176;51.506;10.272;2023-04-25T02:11:15;98661.00;;;4.87;85.30
50282;BME280;36176;51.506;10.272;2023-04-25T02:13:42;98659.34;;;4.85;85.92
50282;BME280;36176;51.506;10.272;2023-04-25T02:16:09;98656.53;;;4.89;86.73
50282;BME280;36176;51.506;10.272;2023-04-25T02:18:36;98653.47;;;5.02;86.21
50282;BME280;36176;51.506;10.272;2023-04-25T02:21:04;98659.16;;;5.13;85.52
50282;BME280;36176;51.506;10.272;2023-04-25T02:23:32;98651.34;;;5.11;84.86
50282;BME280;36176;51.506;10.272;2023-04-25T02:25:59;98650.84;;;5.02;84.67
50282;BME280;36176;51.506;10.272;2023-04-25T02:28:26;98662.00;;;4.83;85.27
50282;BME280;36176;51.506;10.272;2023-04-25T02:30:53;98661.50;;;4.74;86.34
50282;BME280;36176;51.506;10.272;2023-04-25T02:33:20;98664.34;;;4.67;86.49
50282;BME280;36176;51.506;10.272;2023-04-25T02:35:47;98656.56;;;4.64;86.27
50282;BME280;36176;51.506;10.272;2023-04-25T02:38:14;98660.69;;;4.72;86.15
50282;BME280;36176;51.506;10.272;2023-04-25T02:40:41;98656.25;;;4.74;86.62
50282;BME280;36176;51.506;10.272;2023-04-25T02:43:09;98656.16;;;4.77;86.72
50282;BME280;36176;51.506;10.272;2023-04-25T02:45:36;98648.84;;;4.85;85.90
50282;BME280;36176;51.506;10.272;2023-04-25T02:48:03;98645.19;;;4.89;85.97
50282;BME280;36176;51.506;10.272;2023-04-25T02:50:30;98645.13;;;4.90;85.83
50282;BME280;36176;51.506;10.272;2023-04-25T02:52:57;98646.69;;;4.96;85.80
50282;BME280;36176;51.506;10.272;2023-04-25T02:55:24;98643.09;;;4.99;85.30
50282;BME280;36176;51.506;10.272;2023-04-25T02:57:54;98650.13;;;4.98;85.20
50282;BME280;36176;51.506;10.272;2023-04-25T03:00:22;98646.59;;;4.98;85.08
50282;BME280;36176;51.506;10.272;2023-04-25T03:02:50;98646.44;;;5.02;85.42
50282;BME280;36176;51.506;10.272;2023-04-25T03:05:18;98645.59;;;5.02;84.94
50282;BME280;36176;51.506;10.272;2023-04-25T03:07:45;98644.06;;;4.96;84.86
50282;BME280;36176;51.506;10.272;2023-04-25T03:10:12;98649.41;;;4.93;85.06
50282;BME280;36176;51.506;10.272;2023-04-25T03:12:39;98646.50;;;5.01;85.05
50282;BME280;36176;51.506;10.272;2023-04-25T03:15:06;98644.47;;;5.07;85.61
50282;BME280;36176;51.506;10.272;2023-04-25T03:17:33;98647.81;;;5.13;85.13
50282;BME280;36176;51.506;10.272;2023-04-25T03:20:00;98654.66;;;5.17;84.64
50282;BME280;36176;51.506;10.272;2023-04-25T03:22:27;98650.69;;;5.28;84.32
50282;BME280;36176;51.506;10.272;2023-04-25T03:24:54;98639.88;;;5.36;84.31
50282;BME280;36176;51.506;10.272;2023-04-25T03:27:21;98643.97;;;5.43;83.86
50282;BME280;36176;51.506;10.272;2023-04-25T03:29:48;98649.00;;;5.49;83.06
50282;BME280;36176;51.506;10.272;2023-04-25T03:32:15;98644.41;;;5.54;82.56
50282;BME280;36176;51.506;10.272;2023-04-25T03:34:42;98638.03;;;5.60;82.60
50282;BME280;36176;51.506;10.272;2023-04-25T03:37:09;98644.84;;;5.66;82.61
50282;BME280;36176;51.506;10.272;2023-04-25T03:39:36;98646.38;;;5.71;82.51
50282;BME280;36176;51.506;10.272;2023-04-25T03:42:04;98653.34;;;5.72;81.76
50282;BME280;36176;51.506;10.272;2023-04-25T03:44:31;98649.84;;;5.72;81.66
50282;BME280;36176;51.506;10.272;2023-04-25T03:46:58;98648.13;;;5.71;81.59
50282;BME280;36176;51.506;10.272;2023-04-25T03:49:25;98641.84;;;5.75;81.48
50282;BME280;36176;51.506;10.272;2023-04-25T03:51:53;98636.69;;;5.72;81.06
50282;BME280;36176;51.506;10.272;2023-04-25T03:54:20;98648.19;;;5.69;81.03
50282;BME280;36176;51.506;10.272;2023-04-25T03:56:47;98639.22;;;5.75;81.19
50282;BME280;36176;51.506;10.272;2023-04-25T03:59:15;98646.22;;;5.74;81.00
50282;BME280;36176;51.506;10.272;2023-04-25T04:01:42;98638.28;;;5.76;82.03
50282;BME280;36176;51.506;10.272;2023-04-25T04:04:09;98644.41;;;5.76;81.55
50282;BME280;36176;51.506;10.272;2023-04-25T04:06:36;98654.06;;;5.76;82.17
50282;BME280;36176;51.506;10.272;2023-04-25T04:09:03;98649.78;;;5.73;82.88
50282;BME280;36176;51.506;10.272;2023-04-25T04:11:30;98649.66;;;5.76;82.38
50282;BME280;36176;51.506;10.272;2023-04-25T04:13:58;98656.75;;;5.74;82.79
50282;BME280;36176;51.506;10.272;2023-04-25T04:16:25;98662.88;;;5.75;82.90
50282;BME280;36176;51.506;10.272;2023-04-25T04:18:52;98665.59;;;5.72;82.97
50282;BME280;36176;51.506;10.272;2023-04-25T04:21:19;98662.97;;;5.72;83.49
50282;BME280;36176;51.506;10.272;2023-04-25T04:23:46;98665.56;;;5.73;83.57
50282;BME280;36176;51.506;10.272;2023-04-25T04:26:15;98673.25;;;5.78;82.59
50282;BME280;36176;51.506;10.272;2023-04-25T04:28:43;98675.88;;;5.78;83.36
50282;BME280;36176;51.506;10.272;2023-04-25T04:31:10;98677.41;;;5.84;82.71
50282;BME280;36176;51.506;10.272;2023-04-25T04:33:38;98679.13;;;5.85;82.99
50282;BME280;36176;51.506;10.272;2023-04-25T04:36:05;98674.84;;;5.82;82.93
50282;BME280;36176;51.506;10.272;2023-04-25T04:38:34;98675.56;;;5.86;82.76
50282;BME280;36176;51.506;10.272;2023-04-25T04:41:01;98680.66;;;5.90;82.82
50282;BME280;36176;51.506;10.272;2023-04-25T04:43:29;98667.63;;;5.87;83.39
50282;BME280;36176;51.506;10.272;2023-04-25T04:45:56;98684.31;;;5.86;83.50
50282;BME280;36176;51.506;10.272;2023-04-25T04:48:23;98685.84;;;5.92;83.66
50282;BME280;36176;51.506;10.272;2023-04-25T04:50:50;98691.84;;;5.95;84.37
50282;BME280;36176;51.506;10.272;2023-04-25T04:53:17;98688.41;;;5.93;84.15
50282;BME280;36176;51.506;10.272;2023-04-25T04:55:45;98692.88;;;5.91;84.80
50282;BME280;36176;51.506;10.272;2023-04-25T04:58:12;98705.25;;;5.89;85.65
50282;BME280;36176;51.506;10.272;2023-04-25T05:00:39;98696.41;;;5.90;85.67
50282;BME280;36176;51.506;10.272;2023-04-25T05:03:07;98700.81;;;5.90;86.17
50282;BME280;36176;51.506;10.272;2023-04-25T05:05:34;98701.53;;;5.95;86.46
50282;BME280;36176;51.506;10.272;2023-04-25T05:08:01;98708.47;;;5.96;86.44
50282;BME280;36176;51.506;10.272;2023-04-25T05:10:28;98712.91;;;5.95;86.63
50282;BME280;36176;51.506;10.272;2023-04-25T05:12:55;98708.66;;;5.91;87.21
50282;BME280;36176;51.506;10.272;2023-04-25T05:15:22;98710.59;;;5.86;87.46
50282;BME280;36176;51.506;10.272;2023-04-25T05:17:49;98706.28;;;5.85;87.31
50282;BME280;36176;51.506;10.272;2023-04-25T05:20:16;98707.97;;;5.86;87.46
50282;BME280;36176;51.506;10.272;2023-04-25T05:22:45;98716.66;;;5.88;88.16
50282;BME280;36176;51.506;10.272;2023-04-25T05:25:12;98714.88;;;5.89;88.83
50282;BME280;36176;51.506;10.272;2023-04-25T05:27:39;98722.75;;;5.89;88.41
50282;BME280;36176;51.506;10.272;2023-04-25T05:30:07;98722.75;;;5.89;89.01
50282;BME280;36176;51.506;10.272;2023-04-25T05:32:34;98724.25;;;5.96;89.15
50282;BME280;36176;51.506;10.272;2023-04-25T05:35:01;98731.97;;;6.01;89.85
50282;BME280;36176;51.506;10.272;2023-04-25T05:37:29;98736.72;;;6.13;89.62
50282;BME280;36176;51.506;10.272;2023-04-25T05:39:57;98739.91;;;6.21;89.70
50282;BME280;36176;51.506;10.272;2023-04-25T05:42:25;98738.78;;;6.27;89.42
50282;BME280;36176;51.506;10.272;2023-04-25T05:44:51;98740.56;;;6.26;89.97
50282;BME280;36176;51.506;10.272;2023-04-25T05:47:18;98747.44;;;6.30;89.94
50282;BME280;36176;51.506;10.272;2023-04-25T05:49:45;98747.34;;;6.32;89.85
50282;BME280;36176;51.506;10.272;2023-04-25T05:52:12;98750.78;;;6.34;90.05
50282;BME280;36176;51.506;10.272;2023-04-25T05:54:39;98746.00;;;6.44;90.20
50282;BME280;36176;51.506;10.272;2023-04-25T05:57:06;98749.16;;;6.52;89.37
50282;BME280;36176;51.506;10.272;2023-04-25T05:59:33;98752.47;;;6.57;89.02
50282;BME280;36176;51.506;10.272;2023-04-25T06:02:00;98750.63;;;6.59;89.30
50282;BME280;36176;51.506;10.272;2023-04-25T06:04:27;98761.16;;;6.59;89.16
50282;BME280;36176;51.506;10.272;2023-04-25T06:06:54;98763.59;;;6.64;89.57
50282;BME280;36176;51.506;10.272;2023-04-25T06:09:22;98775.47;;;6.72;89.85
50282;BME280;36176;51.506;10.272;2023-04-25T06:11:49;98771.94;;;6.73;89.47
50282;BME280;36176;51.506;10.272;2023-04-25T06:14:16;98772.06;;;6.70;88.69
50282;BME280;36176;51.506;10.272;2023-04-25T06:16:43;98774.81;;;6.67;88.69
50282;BME280;36176;51.506;10.272;2023-04-25T06:19:10;98778.41;;;6.66;88.51
50282;BME280;36176;51.506;10.272;2023-04-25T06:21:37;98782.69;;;6.69;89.57
50282;BME280;36176;51.506;10.272;2023-04-25T06:24:04;98782.72;;;6.67;88.35
50282;BME280;36176;51.506;10.272;2023-04-25T06:26:31;98781.13;;;6.63;88.48
50282;BME280;36176;51.506;10.272;2023-04-25T06:28:58;98784.66;;;6.64;89.21
50282;BME280;36176;51.506;10.272;2023-04-25T06:31:25;98787.75;;;6.73;89.31
50282;BME280;36176;51.506;10.272;2023-04-25T06:33:52;98788.53;;;6.75;88.65
50282;BME280;36176;51.506;10.272;2023-04-25T06:36:21;98788.59;;;6.74;87.36
50282;BME280;36176;51.506;10.272;2023-04-25T06:38:52;98789.97;;;6.62;86.54
50282;BME280;36176;51.506;10.272;2023-04-25T06:41:19;98792.06;;;6.54;87.13
50282;BME280;36176;51.506;10.272;2023-04-25T06:43:46;98794.63;;;6.55;86.62
50282;BME280;36176;51.506;10.272;2023-04-25T06:46:13;98796.28;;;6.58;86.69
50282;BME280;36176;51.506;10.272;2023-04-25T06:48:40;98793.44;;;6.63;85.82
50282;BME280;36176;51.506;10.272;2023-04-25T06:51:07;98798.47;;;6.69;85.70
50282;BME280;36176;51.506;10.272;2023-04-25T06:53:34;98803.66;;;6.70;84.24
50282;BME280;36176;51.506;10.272;2023-04-25T06:56:01;98804.72;;;6.66;84.10
50282;BME280;36176;51.506;10.272;2023-04-25T06:58:28;98808.38;;;6.62;84.23
50282;BME280;36176;51.506;10.272;2023-04-25T07:00:55;98805.91;;;6.59;83.68
50282;BME280;36176;51.506;10.272;2023-04-25T07:03:22;98814.50;;;6.63;83.75
50282;BME280;36176;51.506;10.272;2023-04-25T07:05:50;98804.97;;;6.60;83.05
50282;BME280;36176;51.506;10.272;2023-04-25T07:08:17;98810.78;;;6.68;83.48
50282;BME280;36176;51.506;10.272;2023-04-25T07:10:44;98809.31;;;6.81;83.08
50282;BME280;36176;51.506;10.272;2023-04-25T07:13:15;98820.47;;;6.88;82.62
50282;BME280;36176;51.506;10.272;2023-04-25T07:15:43;98827.38;;;6.91;81.83
50282;BME280;36176;51.506;10.272;2023-04-25T07:18:10;98824.88;;;6.88;81.23
50282;BME280;36176;51.506;10.272;2023-04-25T07:20:37;98832.97;;;6.83;81.33
50282;BME280;36176;51.506;10.272;2023-04-25T07:23:05;98833.31;;;6.75;81.50
50282;BME280;36176;51.506;10.272;2023-04-25T07:25:32;98838.19;;;6.63;81.37
50282;BME280;36176;51.506;10.272;2023-04-25T07:27:59;98839.25;;;6.36;81.39
50282;BME280;36176;51.506;10.272;2023-04-25T07:30:26;98844.69;;;6.32;82.29
50282;BME280;36176;51.506;10.272;2023-04-25T07:32:53;98844.66;;;6.33;81.78
50282;BME280;36176;51.506;10.272;2023-04-25T07:35:20;98851.03;;;6.28;82.27
50282;BME280;36176;51.506;10.272;2023-04-25T07:37:47;98863.78;;;6.15;82.61
50282;BME280;36176;51.506;10.272;2023-04-25T07:40:14;98858.69;;;6.10;83.02
50282;BME280;36176;51.506;10.272;2023-04-25T07:42:44;98862.97;;;6.13;83.43
50282;BME280;36176;51.506;10.272;2023-04-25T07:45:11;98866.00;;;6.26;83.89
50282;BME280;36176;51.506;10.272;2023-04-25T07:47:38;98866.50;;;6.35;82.85
50282;BME280;36176;51.506;10.272;2023-04-25T07:50:05;98877.47;;;6.47;82.68
50282;BME280;36176;51.506;10.272;2023-04-25T07:52:33;98868.28;;;6.57;82.27
50282;BME280;36176;51.506;10.272;2023-04-25T07:55:00;98871.63;;;6.60;82.04
50282;BME280;36176;51.506;10.272;2023-04-25T07:57:27;98877.06;;;6.56;79.84
50282;BME280;36176;51.506;10.272;2023-04-25T07:59:54;98880.09;;;6.47;79.61
50282;BME280;36176;51.506;10.272;2023-04-25T08:02:21;98881.56;;;6.54;80.07
50282;BME280;36176;51.506;10.272;2023-04-25T08:04:48;98885.72;;;6.59;80.02
50282;BME280;36176;51.506;10.272;2023-04-25T08:07:16;98887.38;;;6.62;81.35
50282;BME280;36176;51.506;10.272;2023-04-25T08:09:43;98899.41;;;6.68;79.82
50282;BME280;36176;51.506;10.272;2023-04-25T08:12:10;98893.97;;;6.72;78.36
50282;BME280;36176;51.506;10.272;2023-04-25T08:14:37;98900.59;;;6.82;78.62
50282;BME280;36176;51.506;10.272;2023-04-25T08:17:06;98897.25;;;6.99;78.43
50282;BME280;36176;51.506;10.272;2023-04-25T08:19:33;98902.00;;;7.12;76.87
50282;BME280;36176;51.506;10.272;2023-04-25T08:22:00;98901.28;;;7.29;77.57
50282;BME280;36176;51.506;10.272;2023-04-25T08:24:27;98899.97;;;7.39;76.00
50282;BME280;36176;51.506;10.272;2023-04-25T08:26:54;98907.88;;;7.59;74.68
50282;BME280;36176;51.506;10.272;2023-04-25T08:29:22;98914.63;;;8.04;75.05
50282;BME280;36176;51.506;10.272;2023-04-25T08:31:51;98909.50;;;8.39;73.05
50282;BME280;36176;51.506;10.272;2023-04-25T08:34:19;98914.06;;;8.55;70.71
50282;BME280;36176;51.506;10.272;2023-04-25T08:36:47;98912.53;;;8.87;70.16
50282;BME280;36176;51.506;10.272;2023-04-25T08:39:14;98924.06;;;9.21;69.97
50282;BME280;36176;51.506;10.272;2023-04-25T08:41:41;98913.97;;;9.46;67.01
50282;BME280;36176;51.506;10.272;2023-04-25T08:44:10;98923.56;;;10.15;68.75
50282;BME280;36176;51.506;10.272;2023-04-25T08:46:38;98913.78;;;11.11;67.22
50282;BME280;36176;51.506;10.272;2023-04-25T08:49:08;98928.97;;;11.68;61.30
50282;BME280;36176;51.506;10.272;2023-04-25T08:51:45;98923.16;;;11.91;57.69
50282;BME280;36176;51.506;10.272;2023-04-25T08:54:16;98923.69;;;11.82;58.24
50282;BME280;36176;51.506;10.272;2023-04-25T08:56:47;98919.69;;;11.61;57.21
50282;BME280;36176;51.506;10.272;2023-04-25T08:59:14;98920.88;;;11.41;56.13
50282;BME280;36176;51.506;10.272;2023-04-25T09:01:41;98924.44;;;11.25;56.69
50282;BME280;36176;51.506;10.272;2023-04-25T09:04:08;98924.63;;;10.76;58.26
50282;BME280;36176;51.506;10.272;2023-04-25T09:06:35;98921.78;;;10.79;60.49
50282;BME280;36176;51.506;10.272;2023-04-25T09:09:07;98921.00;;;10.93;56.32
50282;BME280;36176;51.506;10.272;2023-04-25T09:11:36;98934.31;;;11.07;53.46
50282;BME280;36176;51.506;10.272;2023-04-25T09:14:22;98934.78;;;11.30;51.00
50282;BME280;36176;51.506;10.272;2023-04-25T09:19:29;98941.03;;;11.59;50.70
50282;BME280;36176;51.506;10.272;2023-04-25T09:22:07;98944.75;;;11.85;51.46
50282;BME280;36176;51.506;10.272;2023-04-25T09:24:38;98945.66;;;12.00;49.48
50282;BME280;36176;51.506;10.272;2023-04-25T09:27:07;98941.16;;;12.58;51.71
50282;BME280;36176;51.506;10.272;2023-04-25T09:29:37;98945.44;;;12.46;48.75
50282;BME280;36176;51.506;10.272;2023-04-25T09:34:42;98948.75;;;11.48;48.65
50282;BME280;36176;51.506;10.272;2023-04-25T09:37:10;98956.88;;;10.99;50.13
50282;BME280;36176;51.506;10.272;2023-04-25T09:39:38;98962.88;;;10.39;51.51
50282;BME280;36176;51.506;10.272;2023-04-25T09:42:05;98964.91;;;10.00;53.60
50282;BME280;36176;51.506;10.272;2023-04-25T09:44:32;98972.41;;;9.57;55.63
50282;BME280;36176;51.506;10.272;2023-04-25T09:46:59;98967.53;;;9.15;57.12
50282;BME280;36176;51.506;10.272;2023-04-25T09:49:27;98979.16;;;8.75;56.22
50282;BME280;36176;51.506;10.272;2023-04-25T09:51:56;98971.72;;;8.45;55.45
50282;BME280;36176;51.506;10.272;2023-04-25T09:54:24;98986.78;;;8.24;55.02
50282;BME280;36176;51.506;10.272;2023-04-25T09:56:52;98991.66;;;8.13;55.85
50282;BME280;36176;51.506;10.272;2023-04-25T09:59:21;98989.22;;;8.08;54.81
50282;BME280;36176;51.506;10.272;2023-04-25T10:01:52;98989.88;;;8.13;54.18
50282;BME280;36176;51.506;10.272;2023-04-25T10:04:24;98986.53;;;8.09;51.88
50282;BME280;36176;51.506;10.272;2023-04-25T10:06:56;98988.19;;;8.31;51.74
50282;BME280;36176;51.506;10.272;2023-04-25T10:09:26;99001.09;;;8.58;51.17
50282;BME280;36176;51.506;10.272;2023-04-25T10:11:53;99004.41;;;8.80;49.53
50282;BME280;36176;51.506;10.272;2023-04-25T10:14:21;98997.50;;;9.14;49.96
50282;BME280;36176;51.506;10.272;2023-04-25T10:16:49;99000.72;;;9.38;50.45
50282;BME280;36176;51.506;10.272;2023-04-25T10:19:16;99001.00;;;9.51;49.73
50282;BME280;36176;51.506;10.272;2023-04-25T10:21:50;99001.13;;;9.48;48.64
50282;BME280;36176;51.506;10.272;2023-04-25T10:24:19;99004.72;;;9.29;49.66
50282;BME280;36176;51.506;10.272;2023-04-25T10:26:47;99005.63;;;9.28;50.61
50282;BME280;36176;51.506;10.272;2023-04-25T10:29:25;99008.19;;;9.30;50.58
50282;BME280;36176;51.506;10.272;2023-04-25T10:31:52;99010.91;;;9.28;50.97
50282;BME280;36176;51.506;10.272;2023-04-25T10:34:23;99019.22;;;9.21;50.79
50282;BME280;36176;51.506;10.272;2023-04-25T10:36:52;99014.56;;;9.26;52.15
50282;BME280;36176;51.506;10.272;2023-04-25T10:39:24;99008.59;;;9.40;50.63
50282;BME280;36176;51.506;10.272;2023-04-25T10:41:57;99012.59;;;9.48;51.74
50282;BME280;36176;51.506;10.272;2023-04-25T10:44:28;99015.47;;;9.61;51.57
50282;BME280;36176;51.506;10.272;2023-04-25T10:46:57;99011.81;;;9.64;51.90
50282;BME280;36176;51.506;10.272;2023-04-25T10:49:53;99018.19;;;9.77;50.78
50282;BME280;36176;51.506;10.272;2023-04-25T10:52:25;99023.88;;;9.87;50.13
50282;BME280;36176;51.506;10.272;2023-04-25T10:54:55;99023.53;;;9.93;50.47
50282;BME280;36176;51.506;10.272;2023-04-25T10:57:32;99012.00;;;10.11;50.49
50282;BME280;36176;51.506;10.272;2023-04-25T11:00:16;99004.50;;;10.19;48.99
50282;BME280;36176;51.506;10.272;2023-04-25T11:02:53;99022.25;;;10.35;50.30
50282;BME280;36176;51.506;10.272;2023-04-25T11:05:30;99026.16;;;10.61;49.31
50282;BME280;36176;51.506;10.272;2023-04-25T11:08:00;99019.31;;;10.89;48.07
50282;BME280;36176;51.506;10.272;2023-04-25T11:10:34;99028.13;;;11.05;46.14
50282;BME280;36176;51.506;10.272;2023-04-25T11:13:04;99029.50;;;10.96;46.70
50282;BME280;36176;51.506;10.272;2023-04-25T11:15:31;99023.59;;;10.75;46.11
50282;BME280;36176;51.506;10.272;2023-04-25T11:17:58;99021.25;;;10.37;45.88
50282;BME280;36176;51.506;10.272;2023-04-25T11:20:26;99026.50;;;9.69;45.37
50282;BME280;36176;51.506;10.272;2023-04-25T11:22:57;99032.09;;;9.46;46.98
50282;BME280;36176;51.506;10.272;2023-04-25T11:25:26;99036.56;;;9.26;48.92
50282;BME280;36176;51.506;10.272;2023-04-25T11:27:54;99034.19;;;9.03;49.03
50282;BME280;36176;51.506;10.272;2023-04-25T11:30:23;99034.31;;;9.00;49.90
50282;BME280;36176;51.506;10.272;2023-04-25T11:32:50;99032.97;;;9.10;49.94
50282;BME280;36176;51.506;10.272;2023-04-25T11:35:19;99037.56;;;9.24;49.77
50282;BME280;36176;51.506;10.272;2023-04-25T11:37:49;99023.56;;;9.58;49.98
50282;BME280;36176;51.506;10.272;2023-04-25T11:40:17;99030.38;;;9.97;48.03
50282;BME280;36176;51.506;10.272;2023-04-25T11:42:45;99034.38;;;10.39;46.73
50282;BME280;36176;51.506;10.272;2023-04-25T11:45:14;99032.72;;;10.54;47.23
50282;BME280;36176;51.506;10.272;2023-04-25T11:47:41;99038.16;;;10.51;45.20
50282;BME280;36176;51.506;10.272;2023-04-25T11:50:08;99040.69;;;10.54;44.80
50282;BME280;36176;51.506;10.272;2023-04-25T11:52:46;99040.16;;;10.63;44.80
50282;BME280;36176;51.506;10.272;2023-04-25T11:55:14;99039.84;;;10.85;46.63
50282;BME280;36176;51.506;10.272;2023-04-25T11:57:43;99042.56;;;10.68;45.45
50282;BME280;36176;51.506;10.272;2023-04-25T12:00:15;99049.19;;;10.43;43.99
50282;BME280;36176;51.506;10.272;2023-04-25T12:02:53;99049.84;;;10.13;46.07
50282;BME280;36176;51.506;10.272;2023-04-25T12:05:25;99048.44;;;10.06;46.34
50282;BME280;36176;51.506;10.272;2023-04-25T12:08:10;99054.53;;;10.08;47.68
50282;BME280;36176;51.506;10.272;2023-04-25T12:10:38;99052.41;;;10.32;47.03
50282;BME280;36176;51.506;10.272;2023-04-25T12:13:25;99047.28;;;10.78;47.03
50282;BME280;36176;51.506;10.272;2023-04-25T12:15:56;99044.13;;;11.03;45.01
50282;BME280;36176;51.506;10.272;2023-04-25T12:18:24;99055.75;;;11.17;43.14
50282;BME280;36176;51.506;10.272;2023-04-25T12:20:54;99052.50;;;11.12;43.23
50282;BME280;36176;51.506;10.272;2023-04-25T12:23:27;99062.00;;;11.00;43.89
50282;BME280;36176;51.506;10.272;2023-04-25T12:25:55;99074.34;;;10.68;43.79
50282;BME280;36176;51.506;10.272;2023-04-25T12:28:24;99065.69;;;10.48;44.55
50282;BME280;36176;51.506;10.272;2023-04-25T12:31:04;99067.91;;;10.22;46.86
50282;BME280;36176;51.506;10.272;2023-04-25T12:33:36;99070.94;;;9.80;46.52
50282;BME280;36176;51.506;10.272;2023-04-25T12:36:04;99069.16;;;9.63;48.26
50282;BME280;36176;51.506;10.272;2023-04-25T12:38:37;99074.81;;;9.55;48.83
50282;BME280;36176;51.506;10.272;2023-04-25T12:41:06;99076.47;;;9.58;48.97
50282;BME280;36176;51.506;10.272;2023-04-25T12:43:33;99079.03;;;9.77;49.48
50282;BME280;36176;51.506;10.272;2023-04-25T12:46:00;99072.41;;;9.86;49.48
50282;BME280;36176;51.506;10.272;2023-04-25T12:48:27;99078.66;;;9.85;49.38
50282;BME280;36176;51.506;10.272;2023-04-25T12:50:54;99084.69;;;9.69;49.38
50282;BME280;36176;51.506;10.272;2023-04-25T12:53:22;99082.53;;;9.60;51.39
50282;BME280;36176;51.506;10.272;2023-04-25T12:55:50;99086.91;;;9.42;52.38
50282;BME280;36176;51.506;10.272;2023-04-25T12:58:18;99088.44;;;9.29;50.99
50282;BME280;36176;51.506;10.272;2023-04-25T13:00:46;99084.28;;;9.23;51.55
50282;BME280;36176;51.506;10.272;2023-04-25T13:03:13;99088.94;;;9.37;50.49
50282;BME280;36176;51.506;10.272;2023-04-25T13:05:40;99084.63;;;9.53;49.49
50282;BME280;36176;51.506;10.272;2023-04-25T13:08:07;99087.84;;;9.77;49.34